createdAt,value
2019-03-20T00:00:14.705Z,1.45
2019-03-20T00:02:47.974Z,1.51
2019-03-20T00:05:20.433Z,1.52
2019-03-20T00:07:52.263Z,1.51
2019-03-20T00:10:24.305Z,1.52
2019-03-20T00:12:56.325Z,1.53
2019-03-20T00:15:28.431Z,1.48
2019-03-20T00:18:00.458Z,1.46
2019-03-20T00:20:32.760Z,1.44
2019-03-20T00:23:05.068Z,1.41
2019-03-20T00:25:38.784Z,1.19
2019-03-20T00:28:11.005Z,1.17
2019-03-20T00:30:42.951Z,1.19
2019-03-20T00:33:14.801Z,1.14
2019-03-20T00:35:46.638Z,-0.25
2019-03-20T00:38:18.655Z,-0.03
2019-03-20T00:40:50.354Z,0.22
2019-03-20T00:43:22.291Z,0.39
2019-03-20T00:45:54.332Z,0.49
2019-03-20T00:48:27.853Z,0.65
2019-03-20T00:50:59.832Z,0.65
2019-03-20T00:53:31.744Z,0.59
2019-03-20T00:56:03.611Z,0.72
2019-03-20T00:58:35.573Z,0.63
2019-03-20T01:01:07.857Z,0.65
2019-03-20T01:03:39.595Z,0.71
2019-03-20T01:06:11.538Z,0.68
2019-03-20T01:08:43.320Z,0.75
2019-03-20T01:11:15.253Z,0.73
2019-03-20T01:13:47.779Z,0.74
2019-03-20T01:16:20.678Z,0.81
2019-03-20T01:18:52.855Z,0.88
2019-03-20T01:21:26.080Z,0.76
2019-03-20T01:23:57.697Z,0.77
2019-03-20T01:26:29.611Z,0.84
2019-03-20T01:29:01.599Z,0.88
2019-03-20T01:31:33.385Z,0.85
2019-03-20T01:34:06.261Z,0.72
2019-03-20T01:36:37.975Z,0.76
2019-03-20T01:39:09.662Z,0.78
2019-03-20T01:41:41.354Z,0.74
2019-03-20T01:44:13.263Z,0.63
2019-03-20T01:46:45.447Z,0.64
2019-03-20T01:49:17.335Z,0.56
2019-03-20T01:51:49.215Z,0.65
2019-03-20T01:54:21.209Z,0.67
2019-03-20T01:56:53.072Z,0.66
2019-03-20T01:59:26.292Z,0.72
2019-03-20T02:01:58.727Z,0.75
2019-03-20T02:04:30.526Z,0.79
2019-03-20T02:07:02.381Z,0.84
2019-03-20T02:09:35.364Z,0.80
2019-03-20T02:12:07.293Z,0.76
2019-03-20T02:14:39.268Z,0.73
2019-03-20T02:17:11.200Z,0.78
2019-03-20T02:19:43.018Z,0.74
2019-03-20T02:22:14.874Z,0.73
2019-03-20T02:24:46.798Z,0.70
2019-03-20T02:27:20.257Z,0.70
2019-03-20T02:29:51.949Z,0.68
2019-03-20T02:32:25.359Z,0.68
2019-03-20T02:34:57.129Z,0.63
2019-03-20T02:37:28.965Z,0.55
2019-03-20T02:40:00.761Z,0.53
2019-03-20T02:42:34.383Z,0.53
2019-03-20T02:45:07.832Z,0.46
2019-03-20T02:47:39.602Z,0.36
2019-03-20T02:50:12.159Z,0.32
2019-03-20T02:52:44.277Z,0.23
2019-03-20T02:55:16.377Z,0.22
2019-03-20T02:57:48.404Z,0.23
2019-03-20T03:00:20.894Z,0.24
2019-03-20T03:02:52.747Z,0.22
2019-03-20T03:05:25.155Z,0.19
2019-03-20T03:07:56.958Z,0.12
2019-03-20T03:10:30.153Z,0.06
2019-03-20T03:13:01.978Z,0.05
2019-03-20T03:15:34.002Z,0.04
2019-03-20T03:18:06.535Z,0.00
2019-03-20T03:20:38.600Z,-0.12
2019-03-20T03:23:10.432Z,-0.14
2019-03-20T03:25:44.481Z,-0.19
2019-03-20T03:28:16.275Z,-0.30
2019-03-20T03:30:48.128Z,-0.31
2019-03-20T03:33:19.969Z,-0.33
2019-03-20T03:35:53.154Z,-0.50
2019-03-20T03:38:24.998Z,-0.64
2019-03-20T03:40:56.729Z,-0.81
2019-03-20T03:43:28.560Z,-1.03
2019-03-20T03:46:00.505Z,-1.18
2019-03-20T03:48:32.420Z,-1.20
2019-03-20T03:51:04.455Z,-1.34
2019-03-20T03:53:36.464Z,-1.38
2019-03-20T03:56:08.215Z,-1.27
2019-03-20T03:58:40.145Z,-1.29
2019-03-20T04:01:12.864Z,-1.33
2019-03-20T04:03:44.906Z,-1.45
2019-03-20T04:06:16.688Z,-1.48
2019-03-20T04:08:48.499Z,-1.52
2019-03-20T04:11:20.203Z,-1.43
2019-03-20T04:13:53.029Z,-1.43
2019-03-20T04:16:25.093Z,-1.39
2019-03-20T04:18:56.815Z,-1.38
2019-03-20T04:21:28.738Z,-1.35
2019-03-20T04:24:00.748Z,-1.34
2019-03-20T04:26:32.552Z,-1.32
2019-03-20T04:29:06.092Z,-1.32
2019-03-20T04:31:37.747Z,-1.40
2019-03-20T04:34:09.611Z,-1.45
2019-03-20T04:36:48.001Z,-1.48
2019-03-20T04:39:17.366Z,-1.43
2019-03-20T04:41:49.797Z,-1.42
2019-03-20T04:44:21.621Z,-1.34
2019-03-20T04:46:53.892Z,-1.37
2019-03-20T04:49:25.609Z,-1.28
2019-03-20T04:51:58.125Z,-1.30
2019-03-20T04:54:29.845Z,-1.28
2019-03-20T04:57:01.625Z,-1.27
2019-03-20T04:59:33.567Z,-1.30
2019-03-20T05:02:07.410Z,-1.26
2019-03-20T05:04:39.232Z,-1.25
2019-03-20T05:07:11.174Z,-1.31
2019-03-20T05:09:43.140Z,-1.31
2019-03-20T05:12:14.979Z,-1.33
2019-03-20T05:14:47.511Z,-1.33
2019-03-20T05:17:19.349Z,-1.19
2019-03-20T05:19:51.433Z,-1.19
2019-03-20T05:22:23.436Z,-1.15
2019-03-20T05:24:55.581Z,-1.25
2019-03-20T05:27:27.366Z,-1.25
2019-03-20T05:29:59.151Z,-1.29
2019-03-20T05:32:32.874Z,-1.35
2019-03-20T05:35:04.757Z,-1.31
2019-03-20T05:37:37.153Z,-1.32
2019-03-20T05:40:10.540Z,-1.34
2019-03-20T05:42:42.626Z,-1.31
2019-03-20T05:45:14.694Z,-1.03
2019-03-20T05:47:46.815Z,-1.16
2019-03-20T05:50:18.836Z,-1.08
2019-03-20T05:52:50.921Z,-0.98
2019-03-20T05:55:23.213Z,-0.90
2019-03-20T05:57:55.347Z,-0.79
2019-03-20T06:00:29.746Z,-0.67
2019-03-20T06:03:01.834Z,-0.57
2019-03-20T06:05:33.690Z,-0.47
2019-03-20T06:08:05.882Z,-0.38
2019-03-20T06:10:37.611Z,-0.38
2019-03-20T06:13:09.439Z,-0.42
2019-03-20T06:15:41.180Z,-0.50
2019-03-20T06:18:13.221Z,-0.69
2019-03-20T06:20:45.196Z,-0.69
2019-03-20T06:23:16.969Z,-0.64
2019-03-20T06:25:51.318Z,-0.51
2019-03-20T06:28:22.609Z,-0.36
2019-03-20T06:30:54.488Z,-0.20
2019-03-20T06:33:26.707Z,-0.01
2019-03-20T06:35:58.741Z,0.13
2019-03-20T06:38:30.995Z,0.12
2019-03-20T06:41:02.864Z,0.22
2019-03-20T06:43:34.589Z,0.27
2019-03-20T06:46:06.846Z,0.30
2019-03-20T06:48:38.645Z,0.35
2019-03-20T06:51:11.570Z,0.32
2019-03-20T06:53:43.543Z,0.42
2019-03-20T06:56:15.831Z,0.54
2019-03-20T06:58:47.834Z,0.69
2019-03-20T07:01:26.911Z,0.76
2019-03-20T07:04:32.674Z,0.88
2019-03-20T07:07:11.710Z,1.07
2019-03-20T07:10:14.545Z,1.20
2019-03-20T07:12:46.447Z,1.24
2019-03-20T07:15:18.282Z,1.29
2019-03-20T07:17:50.078Z,1.21
2019-03-20T07:20:22.009Z,1.43
2019-03-20T07:22:54.152Z,1.51
2019-03-20T07:25:26.240Z,1.60
2019-03-20T07:27:58.345Z,1.80
2019-03-20T07:30:30.835Z,1.93
2019-03-20T07:33:02.931Z,2.02
2019-03-20T07:35:34.552Z,2.02
2019-03-20T07:38:06.305Z,2.09
2019-03-20T07:40:40.836Z,2.35
2019-03-20T07:43:12.677Z,2.35
2019-03-20T07:45:44.700Z,2.43
2019-03-20T07:48:22.052Z,2.61
2019-03-20T07:50:50.175Z,2.64
2019-03-20T07:53:22.543Z,2.61
2019-03-20T07:55:54.431Z,2.73
2019-03-20T07:58:26.274Z,2.84
2019-03-20T08:00:58.193Z,2.96
2019-03-20T08:03:30.120Z,3.14
2019-03-20T08:06:01.733Z,3.28
2019-03-20T08:08:33.353Z,3.45
2019-03-20T08:11:05.092Z,3.56
2019-03-20T08:13:36.766Z,3.65
2019-03-20T08:16:08.584Z,3.77
2019-03-20T08:18:40.534Z,3.85
2019-03-20T08:21:14.094Z,3.97
2019-03-20T08:23:45.768Z,4.06
2019-03-20T08:26:17.740Z,4.23
2019-03-20T08:28:49.400Z,4.35
2019-03-20T08:31:21.279Z,4.56
2019-03-20T08:33:56.203Z,4.54
2019-03-20T08:36:28.015Z,4.71
2019-03-20T08:38:59.794Z,4.84
2019-03-20T08:41:31.862Z,4.86
2019-03-20T08:44:04.210Z,4.82
2019-03-20T08:46:36.511Z,4.91
2019-03-20T08:49:08.476Z,5.01
2019-03-20T08:51:40.473Z,5.14
2019-03-20T08:54:12.365Z,5.34
2019-03-20T08:56:44.380Z,5.42
2019-03-20T08:59:18.154Z,5.56
2019-03-20T09:01:51.630Z,5.71
2019-03-20T09:04:23.578Z,5.78
2019-03-20T09:06:55.528Z,5.73
2019-03-20T09:09:27.467Z,5.91
2019-03-20T09:11:59.191Z,5.94
2019-03-20T09:14:30.949Z,5.77
2019-03-20T09:17:02.976Z,5.77
2019-03-20T09:19:34.944Z,5.93
2019-03-20T09:22:07.086Z,5.82
2019-03-20T09:24:38.920Z,5.80
2019-03-20T09:27:12.000Z,5.90
2019-03-20T09:29:43.688Z,6.01
2019-03-20T09:32:15.587Z,6.10
2019-03-20T09:34:47.311Z,6.02
2019-03-20T09:37:19.242Z,6.19
2019-03-20T09:39:51.263Z,6.09
2019-03-20T09:42:23.338Z,6.26
2019-03-20T09:44:55.384Z,6.48
2019-03-20T09:47:27.214Z,6.12
2019-03-20T09:49:58.986Z,6.47
2019-03-20T09:52:32.281Z,6.55
2019-03-20T09:55:04.750Z,6.29
2019-03-20T09:57:36.886Z,6.57
2019-03-20T10:00:15.423Z,6.54
2019-03-20T10:02:48.378Z,6.93
2019-03-20T10:05:20.959Z,6.98
2019-03-20T10:07:52.653Z,7.30
2019-03-20T10:10:24.629Z,7.17
2019-03-20T10:12:56.760Z,7.06
2019-03-20T10:15:29.069Z,7.32
2019-03-20T10:18:01.160Z,7.26
2019-03-20T10:20:33.326Z,7.61
2019-03-20T10:23:06.598Z,7.73
2019-03-20T10:25:44.500Z,7.75
2019-03-20T10:28:12.625Z,7.92
2019-03-20T10:30:47.483Z,8.13
2019-03-20T10:33:20.056Z,7.58
2019-03-20T10:35:52.015Z,7.58
2019-03-20T10:38:26.856Z,7.69
2019-03-20T10:41:01.224Z,7.48
2019-03-20T10:43:35.720Z,7.73
2019-03-20T10:46:08.682Z,8.20
2019-03-20T10:48:41.575Z,8.35
2019-03-20T10:51:13.714Z,7.92
2019-03-20T10:53:45.484Z,7.92
2019-03-20T10:56:17.219Z,7.56
2019-03-20T10:58:49.233Z,7.39
2019-03-20T11:01:21.166Z,7.20
2019-03-20T11:03:53.348Z,7.34
2019-03-20T11:06:25.071Z,7.17
2019-03-20T11:08:56.870Z,7.12
2019-03-20T11:11:28.913Z,7.07
2019-03-20T11:14:03.163Z,7.17
2019-03-20T11:16:34.881Z,7.25
2019-03-20T11:19:06.605Z,7.51
2019-03-20T11:21:39.998Z,7.40
2019-03-20T11:24:11.841Z,7.40
2019-03-20T11:26:47.132Z,7.46
2019-03-20T11:29:21.740Z,7.40
2019-03-20T11:31:54.015Z,7.56
2019-03-20T11:34:28.655Z,7.51
2019-03-20T11:37:00.441Z,7.30
2019-03-20T11:39:35.051Z,7.43
2019-03-20T11:42:06.912Z,7.43
2019-03-20T11:44:38.645Z,7.41
2019-03-20T11:47:11.378Z,7.68
2019-03-20T11:49:43.027Z,7.75
2019-03-20T11:52:15.044Z,7.78
2019-03-20T11:54:47.715Z,7.98
2019-03-20T11:57:21.659Z,8.07
2019-03-20T11:59:54.658Z,7.97
2019-03-20T12:02:28.482Z,8.12
2019-03-20T12:04:59.869Z,8.26
2019-03-20T12:07:34.042Z,8.14
2019-03-20T12:10:07.016Z,8.15
2019-03-20T12:12:38.941Z,8.14
2019-03-20T12:15:11.087Z,8.69
2019-03-20T12:17:43.061Z,8.76
2019-03-20T12:20:17.309Z,9.00
2019-03-20T12:22:49.245Z,9.13
2019-03-20T12:25:23.862Z,8.84
2019-03-20T12:27:55.956Z,8.84
2019-03-20T12:30:30.496Z,8.94
2019-03-20T12:33:02.468Z,8.94
2019-03-20T12:35:34.411Z,9.79
2019-03-20T12:38:14.164Z,11.16
2019-03-20T12:40:40.328Z,11.62
2019-03-20T12:43:13.826Z,11.56
2019-03-20T12:45:45.452Z,11.25
2019-03-20T12:48:17.190Z,10.14
2019-03-20T12:50:48.950Z,9.62
2019-03-20T12:53:21.066Z,9.74
2019-03-20T12:55:53.187Z,9.72
2019-03-20T12:58:26.626Z,9.88
2019-03-20T13:00:58.573Z,9.79
2019-03-20T13:03:30.853Z,9.41
2019-03-20T13:06:02.852Z,9.01
2019-03-20T13:08:35.068Z,9.18
2019-03-20T13:11:06.951Z,9.16
2019-03-20T13:13:38.867Z,9.10
2019-03-20T13:16:10.885Z,9.24
2019-03-20T13:18:43.770Z,8.83
2019-03-20T13:21:15.486Z,8.49
2019-03-20T13:23:47.278Z,8.87
2019-03-20T13:26:19.322Z,8.88
2019-03-20T13:28:51.016Z,8.85
2019-03-20T13:31:23.965Z,8.92
2019-03-20T13:33:56.412Z,8.70
2019-03-20T13:36:27.994Z,8.71
2019-03-20T13:39:00.987Z,8.87
2019-03-20T13:41:35.973Z,8.89
2019-03-20T13:44:07.878Z,9.54
2019-03-20T13:46:40.097Z,9.71
2019-03-20T13:49:12.207Z,9.88
2019-03-20T13:51:43.833Z,9.64
2019-03-20T13:54:15.529Z,9.85
2019-03-20T13:56:47.276Z,9.73
2019-03-20T13:59:19.247Z,9.55
2019-03-20T14:01:51.086Z,9.65
2019-03-20T14:04:22.891Z,9.47
2019-03-20T14:06:54.700Z,9.12
2019-03-20T14:09:27.408Z,9.07
2019-03-20T14:12:01.696Z,8.80
2019-03-20T14:14:33.466Z,8.47
2019-03-20T14:17:05.395Z,8.27
2019-03-20T14:19:37.490Z,8.49
2019-03-20T14:22:09.745Z,8.36
2019-03-20T14:24:41.477Z,8.27
2019-03-20T14:27:13.346Z,8.25
2019-03-20T14:29:45.074Z,8.19
2019-03-20T14:32:19.091Z,8.23
2019-03-20T14:34:50.775Z,8.46
2019-03-20T14:37:22.859Z,8.43
2019-03-20T14:39:54.747Z,8.33
2019-03-20T14:42:26.404Z,8.24
2019-03-20T14:44:58.721Z,8.27
2019-03-20T14:47:31.078Z,8.37
2019-03-20T14:50:03.410Z,8.26
2019-03-20T14:52:35.241Z,8.27
2019-03-20T14:55:08.118Z,8.42
2019-03-20T14:57:39.985Z,8.49
2019-03-20T15:00:15.204Z,8.55
2019-03-20T15:02:47.930Z,8.52
2019-03-20T15:05:19.557Z,8.52
2019-03-20T15:07:51.263Z,8.50
2019-03-20T15:10:24.541Z,8.37
2019-03-20T15:12:56.331Z,8.28
2019-03-20T15:15:43.325Z,8.11
2019-03-20T15:18:15.304Z,8.11
2019-03-20T15:20:47.245Z,8.14
2019-03-20T15:23:19.036Z,8.08
2019-03-20T15:25:50.896Z,8.11
2019-03-20T15:28:22.765Z,8.12
2019-03-20T15:30:55.097Z,8.19
2019-03-20T15:33:27.360Z,8.21
2019-03-20T15:36:00.283Z,8.11
2019-03-20T15:38:33.927Z,8.05
2019-03-20T15:41:05.982Z,8.33
2019-03-20T15:43:37.567Z,8.68
2019-03-20T15:46:10.158Z,9.00
2019-03-20T15:48:43.060Z,9.25
2019-03-20T15:51:14.898Z,9.66
2019-03-20T15:53:47.026Z,9.85
2019-03-20T15:56:20.479Z,10.07
2019-03-20T15:58:53.542Z,10.30
2019-03-20T16:01:25.578Z,9.78
2019-03-20T16:03:57.182Z,9.43
2019-03-20T16:06:30.008Z,9.30
2019-03-20T16:09:02.155Z,8.90
2019-03-20T16:11:35.205Z,8.60
2019-03-20T16:14:07.129Z,8.33
2019-03-20T16:16:39.777Z,8.15
2019-03-20T16:19:11.644Z,8.25
2019-03-20T16:21:43.402Z,8.21
2019-03-20T16:24:16.818Z,8.14
2019-03-20T16:26:48.446Z,8.07
2019-03-20T16:29:20.023Z,7.93
2019-03-20T16:31:51.914Z,7.81
2019-03-20T16:34:23.659Z,7.77
2019-03-20T16:36:55.476Z,7.76
2019-03-20T16:39:27.463Z,7.64
2019-03-20T16:42:01.150Z,7.65
2019-03-20T16:44:33.507Z,7.65
2019-03-20T16:47:05.492Z,7.56
2019-03-20T16:49:37.326Z,7.44
2019-03-20T16:52:09.426Z,7.40
2019-03-20T16:54:41.270Z,7.38
2019-03-20T16:57:13.038Z,7.40
2019-03-20T16:59:44.883Z,7.34
2019-03-20T17:02:17.788Z,7.30
2019-03-20T17:04:49.407Z,7.22
2019-03-20T17:07:21.564Z,7.16
2019-03-20T17:09:53.186Z,7.11
2019-03-20T17:12:26.362Z,6.99
2019-03-20T17:14:58.157Z,6.98
2019-03-20T17:17:31.163Z,6.89
2019-03-20T17:20:04.003Z,6.79
2019-03-20T17:22:41.940Z,6.76
2019-03-20T17:25:10.195Z,6.69
2019-03-20T17:27:43.256Z,6.64
2019-03-20T17:30:26.403Z,6.63
2019-03-20T17:32:58.165Z,6.57
2019-03-20T17:35:30.018Z,6.54
2019-03-20T17:38:02.087Z,6.56
2019-03-20T17:40:34.579Z,6.57
2019-03-20T17:43:07.346Z,6.49
2019-03-20T17:45:40.473Z,6.49
2019-03-20T17:48:12.371Z,6.52
2019-03-20T17:50:44.127Z,6.48
2019-03-20T17:53:16.059Z,6.48
2019-03-20T17:55:48.946Z,6.45
2019-03-20T17:58:20.924Z,6.40
2019-03-20T18:00:53.774Z,6.35
2019-03-20T18:03:25.646Z,6.28
2019-03-20T18:05:57.301Z,6.14
2019-03-20T18:08:28.946Z,6.05
2019-03-20T18:11:00.584Z,6.02
2019-03-20T18:13:32.291Z,6.02
2019-03-20T18:16:04.185Z,5.98
2019-03-20T18:18:35.835Z,5.90
2019-03-20T18:21:07.653Z,5.80
2019-03-20T18:23:39.627Z,5.71
2019-03-20T18:26:11.454Z,5.66
2019-03-20T18:28:43.072Z,5.62
2019-03-20T18:31:14.969Z,5.51
2019-03-20T18:33:47.063Z,5.45
2019-03-20T18:36:19.975Z,5.37
2019-03-20T18:38:51.793Z,5.30
2019-03-20T18:41:23.626Z,5.31
2019-03-20T18:43:56.728Z,5.39
2019-03-20T18:46:28.481Z,5.42
2019-03-20T18:49:00.148Z,5.26
2019-03-20T18:51:31.858Z,5.22
2019-03-20T18:54:03.968Z,5.14
2019-03-20T18:56:36.262Z,5.22
2019-03-20T18:59:07.937Z,5.26
2019-03-20T19:01:39.922Z,5.16
2019-03-20T19:04:11.845Z,5.13
2019-03-20T19:06:43.966Z,5.16
2019-03-20T19:09:15.822Z,5.15
2019-03-20T19:11:47.574Z,5.09
2019-03-20T19:14:20.529Z,5.02
2019-03-20T19:16:52.367Z,4.93
2019-03-20T19:19:24.084Z,4.90
2019-03-20T19:21:55.726Z,4.83
2019-03-20T19:24:27.666Z,4.81
2019-03-20T19:26:59.328Z,4.78
2019-03-20T19:29:30.975Z,4.75
2019-03-20T19:32:03.902Z,4.72
2019-03-20T19:34:35.845Z,4.74
2019-03-20T19:37:07.632Z,4.72
2019-03-20T19:39:39.354Z,4.74
2019-03-20T19:42:19.651Z,4.72
2019-03-20T19:44:45.515Z,4.68
2019-03-20T19:47:17.418Z,4.63
2019-03-20T19:49:49.072Z,4.57
2019-03-20T19:52:21.815Z,4.47
2019-03-20T19:54:53.398Z,4.42
2019-03-20T19:57:25.129Z,4.38
2019-03-20T19:59:57.123Z,4.36
2019-03-20T20:02:28.722Z,4.28
2019-03-20T20:05:00.471Z,4.26
2019-03-20T20:07:32.056Z,4.21
2019-03-20T20:10:03.919Z,4.22
2019-03-20T20:12:35.582Z,4.17
2019-03-20T20:15:10.368Z,4.11
2019-03-20T20:17:42.285Z,4.05
2019-03-20T20:20:16.908Z,4.05
2019-03-20T20:22:48.627Z,4.00
2019-03-20T20:25:21.207Z,3.91
2019-03-20T20:27:52.910Z,3.89
2019-03-20T20:30:24.828Z,3.92
2019-03-20T20:32:56.490Z,3.86
2019-03-20T20:35:28.300Z,3.84
2019-03-20T20:38:00.310Z,3.84
2019-03-20T20:40:32.184Z,3.79
2019-03-20T20:43:03.796Z,3.80
2019-03-20T20:45:35.832Z,3.77
2019-03-20T20:48:07.645Z,3.76
2019-03-20T20:50:39.475Z,3.78
2019-03-20T20:53:11.284Z,3.88
2019-03-20T20:55:42.914Z,3.90
2019-03-20T20:58:15.041Z,3.84
2019-03-20T21:00:46.738Z,3.73
2019-03-20T21:03:18.911Z,3.62
2019-03-20T21:05:50.505Z,3.65
2019-03-20T21:08:22.281Z,3.66
2019-03-20T21:10:54.052Z,3.54
2019-03-20T21:13:25.641Z,3.57
2019-03-20T21:16:00.601Z,3.56
2019-03-20T21:19:16.053Z,3.54
2019-03-20T21:22:28.715Z,3.58
2019-03-20T21:25:00.965Z,3.52
2019-03-20T21:28:13.290Z,3.51
2019-03-20T21:31:02.141Z,3.48
2019-03-20T21:34:29.610Z,3.41
2019-03-20T21:37:30.849Z,3.39
2019-03-20T21:40:03.025Z,3.38
2019-03-20T21:43:10.989Z,3.39
2019-03-20T21:46:00.817Z,3.35
2019-03-20T21:48:33.121Z,3.35
2019-03-20T21:51:16.980Z,3.37
2019-03-20T21:54:42.870Z,3.34
2019-03-20T21:57:52.565Z,3.31
2019-03-20T22:01:00.711Z,3.30
2019-03-20T22:03:33.506Z,3.36
2019-03-20T22:06:51.623Z,3.30
2019-03-20T22:10:15.972Z,3.22
2019-03-20T22:13:00.487Z,3.19
2019-03-20T22:16:19.332Z,3.18
2019-03-20T22:19:49.831Z,3.15
2019-03-20T22:23:05.956Z,2.85
2019-03-20T22:26:24.850Z,2.53
2019-03-20T22:29:22.040Z,2.39
2019-03-20T22:32:31.398Z,2.29
2019-03-20T22:35:30.903Z,2.33
2019-03-20T22:38:05.135Z,2.39
2019-03-20T22:41:21.665Z,2.35
2019-03-20T22:43:58.196Z,2.44
2019-03-20T22:47:19.724Z,2.44
2019-03-20T22:50:34.589Z,2.51
2019-03-20T22:53:59.577Z,2.62
2019-03-20T22:57:14.655Z,2.70
2019-03-20T22:59:46.965Z,2.62
2019-03-20T23:02:27.208Z,2.59
2019-03-20T23:05:00.601Z,2.52
2019-03-20T23:07:33.021Z,2.37
2019-03-20T23:10:07.760Z,2.39
2019-03-20T23:12:40.480Z,2.51
2019-03-20T23:15:15.853Z,2.71
2019-03-20T23:17:48.183Z,2.81
2019-03-20T23:20:22.845Z,2.71
2019-03-20T23:22:55.189Z,2.70
2019-03-20T23:25:28.056Z,2.79
2019-03-20T23:28:00.421Z,2.78
2019-03-20T23:30:32.970Z,2.79
2019-03-20T23:33:05.351Z,2.84
2019-03-20T23:35:37.872Z,2.85
2019-03-20T23:38:10.312Z,2.84
2019-03-20T23:40:42.795Z,2.82
2019-03-20T23:43:15.248Z,2.60
2019-03-20T23:45:47.531Z,2.39
2019-03-20T23:48:30.774Z,2.06
2019-03-20T23:51:06.521Z,1.67
2019-03-20T23:53:43.115Z,1.86
2019-03-20T23:56:15.471Z,2.16
2019-03-20T23:58:48.047Z,2.43
